Portada
METAR-TAF:

METAR-TAF

Aeroports :

Campeche, Mèxic

latitud: 19-51N, longitud: 090-33W, altitud: 5 m

Observació

L'informe es va fer fa 29 minuts, a les 12:46 UTC
Vent 10 kt del Est/Sud-Est
Temperatura 21°C
Humitat 94%
Pressió 1015 hPa
Visibilitat: 11.3 km
Cel clar

METAR: MMCP 181246Z 12010KT 7SM SKC 21/20 A2996 RMK HZY

Hora: 07:15 (13:15 UTC)

Pronòstic

L'informe es va fer fa 8 hores i 51 minuts, a les 04:24 UTC
Pronòstic vàlid del 18 a les 06 UTC al 19 a les 06 UTC
Vent kt del Nord
Visibilitat: 10 km
Cel clar
Evolucionant progressivament
l' 18 a les 13 UTC al 18 a les 14 UTC
Vent 10 kt del Est/Sud-Est
A partir de les 18 a les 1800 UTC
Vent 15 kt del Nord/Nord-Oest
Visibilitat: 10 km
Núvols disperses a una alçada de 3000 ft
Núvols disperses a una alçada de 25000 ft
A partir de les 19 a les 0500 UTC
Vent 6 kt del Nord/Nord-Oest
Visibilitat: 10 km
Cel clar

TAF: MMCP 180424Z 1806/1906 00000KT P6SM SKC BECMG 1813/1814 12010KT FM181800 34015KT P6SM SCT030 SCT250 FM190500 34006KT P6SM SKC

Observacions i pronòstics meteorològics de més de 4000 aeroports (METAR i TAF).

Les estacions disponibles són els punts grocs i vermells al mapa.

Posi el ratolí al punt desitjat per veure el nom de l'estació.

Feu clic per veure les observacions i els pronòstics meteorològics.

Per canviar el mapa: feu clic els botons verds amb una creu de color negre per apropar; al botó verd amb un guió per allunyar la imatge; o en les fletxes verdes per a mapes adjacents.


METAR-TAF: